Strona główna
METAR-TAF:

METAR-TAF

Lotnisko :

Platforma wiertnicza

Hoorn-a, Holandia

Szerokość geograficzna: 52-55-05N, Długość geograficzna: 4-09-01E, wysokość: 41 m

Aktualna obserwacja pogody

Raport powstał 24 minut temu, godzina 12:55 UTC
Wiatr 22 kt od zachód
Temperatura 6°C
Wilgotność 81%
Ciśnienie 1023 hPa
Widzialność 10 km lub więcej
Mało chmury na wysokości 1500 ft, Cumulonimbus.
Rozproszone chmury na wysokości 2700 ft
Przerywane chmury na wysokości 4500 ft

METAR: EHQE 181255Z AUTO 27022KT 9999 FEW015CB SCT027 BKN045 06/03 Q1023

czas: 14:19 (13:19 UTC)


TAF: brakujący

Obserwacja i prognoza pogody dla ponad 4000 lotnisk (raport METAR i TAF).

Dostępne stacje oznaczono żółtymi i czerwonymi punktami na mapie.

Najedź kursorem aby zobaczyć nazwę stacji.

Kliknij aby zobaczyć obserwacje i prognozy pogody.

Aby zmienić mapę: kliknij na zielony przycisk z czarnym krzyżykiem, aby powiększyć; na zielony przycisk z myślnikiem, aby pomniejszyć; na zielone strzałki, aby przejść do map sąsiednich.


METAR-TAF: